createdAt,value
2022-08-09T00:00:04.161Z,36.90
2022-08-09T00:04:06.066Z,36.90
2022-08-09T00:06:49.673Z,36.80
2022-08-09T00:09:51.763Z,36.80
2022-08-09T00:12:53.836Z,36.80
2022-08-09T00:15:59.785Z,36.80
2022-08-09T00:19:10.162Z,36.80
2022-08-09T00:22:12.662Z,36.80
2022-08-09T00:25:15.775Z,36.80
2022-08-09T00:28:27.256Z,36.80
2022-08-09T00:31:57.320Z,36.80
2022-08-09T00:34:52.961Z,36.80
2022-08-09T00:37:54.984Z,36.90
2022-08-09T00:40:58.098Z,36.90
2022-08-09T00:44:16.419Z,36.80
2022-08-09T00:47:25.475Z,36.90
2022-08-09T00:50:27.661Z,36.90
2022-08-09T00:53:31.152Z,36.90
2022-08-09T00:56:38.375Z,36.80
2022-08-09T00:59:47.091Z,36.80
2022-08-09T01:03:19.606Z,36.80
2022-08-09T01:06:54.522Z,36.80
2022-08-09T01:10:06.848Z,36.80
2022-08-09T01:13:53.477Z,36.70
2022-08-09T01:17:10.991Z,36.70
2022-08-09T01:20:44.569Z,36.80
2022-08-09T01:24:14.002Z,36.80
2022-08-09T01:27:20.021Z,36.80
2022-08-09T01:30:35.371Z,36.90
2022-08-09T01:33:41.365Z,36.80
2022-08-09T01:36:45.151Z,36.70
2022-08-09T01:39:50.479Z,36.70
2022-08-09T01:42:54.750Z,36.70
2022-08-09T01:45:58.095Z,36.60
2022-08-09T01:49:10.271Z,36.60
2022-08-09T01:52:17.818Z,36.50
2022-08-09T01:55:22.516Z,36.40
2022-08-09T01:58:28.068Z,36.40
2022-08-09T02:01:57.906Z,36.40
2022-08-09T02:05:04.056Z,36.40
2022-08-09T02:08:35.393Z,36.40
2022-08-09T02:11:42.030Z,36.40
2022-08-09T02:14:48.702Z,36.40
2022-08-09T02:18:00.944Z,36.30
2022-08-09T02:21:17.307Z,36.30
2022-08-09T02:24:31.789Z,36.40
2022-08-09T02:27:57.409Z,36.30
2022-08-09T02:31:12.771Z,36.30
2022-08-09T02:34:40.179Z,36.40
2022-08-09T02:37:45.412Z,36.30
2022-08-09T02:40:48.577Z,36.30
2022-08-09T02:43:55.600Z,36.30
2022-08-09T02:47:00.439Z,36.30
2022-08-09T02:50:14.489Z,36.30
2022-08-09T02:53:29.664Z,36.40
2022-08-09T02:56:33.431Z,36.30
2022-08-09T02:59:38.291Z,36.40
2022-08-09T03:03:01.081Z,36.30
2022-08-09T03:06:08.617Z,36.40
2022-08-09T03:09:12.498Z,36.40
2022-08-09T03:12:16.056Z,36.40
2022-08-09T03:15:20.554Z,36.40
2022-08-09T03:18:31.164Z,36.40
2022-08-09T03:21:36.580Z,36.40
2022-08-09T03:24:51.746Z,36.50
2022-08-09T03:27:56.558Z,36.40
2022-08-09T03:30:59.319Z,36.50
2022-08-09T03:34:07.667Z,36.50
2022-08-09T03:37:56.051Z,36.50
2022-08-09T03:40:36.860Z,36.50
2022-08-09T03:44:03.060Z,36.50
2022-08-09T03:47:07.088Z,36.50
2022-08-09T03:50:10.923Z,36.60
2022-08-09T03:53:13.423Z,36.60
2022-08-09T03:56:17.921Z,36.60
2022-08-09T03:59:27.427Z,36.60
2022-08-09T04:02:44.986Z,36.60
2022-08-09T04:05:47.729Z,36.60
2022-08-09T04:08:49.787Z,36.60
2022-08-09T04:12:12.083Z,36.70
2022-08-09T04:16:17.421Z,36.70
2022-08-09T04:18:53.093Z,36.80
2022-08-09T04:21:56.595Z,36.70
2022-08-09T04:25:01.269Z,36.80
2022-08-09T04:28:03.910Z,36.80
2022-08-09T04:31:09.162Z,36.80
2022-08-09T04:34:11.585Z,36.80
2022-08-09T04:37:14.677Z,36.90
2022-08-09T04:40:19.532Z,36.90
2022-08-09T04:43:38.467Z,36.90
2022-08-09T04:46:59.296Z,36.90
2022-08-09T04:50:07.197Z,37.00
2022-08-09T04:53:11.873Z,37.00
2022-08-09T04:56:15.781Z,37.00
2022-08-09T04:59:22.736Z,37.10
2022-08-09T05:02:27.211Z,37.10
2022-08-09T05:05:31.718Z,37.10
2022-08-09T05:08:52.301Z,37.20
2022-08-09T05:12:02.056Z,37.30
2022-08-09T05:15:11.518Z,37.40
2022-08-09T05:18:38.942Z,37.50
2022-08-09T05:21:47.022Z,37.60
2022-08-09T05:24:57.358Z,37.70
2022-08-09T05:28:03.588Z,37.70
2022-08-09T05:31:09.345Z,37.70
2022-08-09T05:34:16.453Z,37.70
2022-08-09T05:37:19.413Z,37.80
2022-08-09T05:40:21.828Z,37.70
2022-08-09T05:43:24.663Z,37.80
2022-08-09T05:46:31.449Z,37.80
2022-08-09T05:50:30.834Z,38.00
2022-08-09T05:52:55.962Z,38.00
2022-08-09T05:55:58.002Z,37.90
2022-08-09T05:59:00.159Z,38.00
2022-08-09T06:02:02.259Z,38.10
2022-08-09T06:05:05.196Z,38.20
2022-08-09T06:08:11.065Z,38.20
2022-08-09T06:11:16.219Z,38.30
2022-08-09T06:14:18.833Z,38.40
2022-08-09T06:17:21.461Z,38.40
2022-08-09T06:20:23.329Z,38.50
2022-08-09T06:23:57.657Z,38.50
2022-08-09T06:26:50.764Z,38.60
2022-08-09T06:30:04.634Z,38.70
2022-08-09T06:33:30.375Z,38.70
2022-08-09T06:36:34.131Z,38.80
2022-08-09T06:39:58.012Z,38.90
2022-08-09T06:42:58.256Z,38.90
2022-08-09T06:46:04.947Z,38.90
2022-08-09T06:49:10.090Z,39.00
2022-08-09T06:52:12.318Z,38.90
2022-08-09T06:55:23.278Z,39.00
2022-08-09T06:58:40.765Z,39.00
2022-08-09T07:01:54.560Z,39.10
2022-08-09T07:05:01.035Z,39.20
2022-08-09T07:08:03.619Z,39.30
2022-08-09T07:11:06.120Z,39.20
2022-08-09T07:14:09.154Z,39.30
2022-08-09T07:17:11.095Z,39.50
2022-08-09T07:20:15.815Z,39.50
2022-08-09T07:23:19.370Z,39.60
2022-08-09T07:26:21.844Z,39.80
2022-08-09T07:29:25.786Z,39.80
2022-08-09T07:32:34.402Z,39.90
2022-08-09T07:35:53.670Z,40.00
2022-08-09T07:39:00.847Z,40.00
2022-08-09T07:42:05.012Z,40.20
2022-08-09T07:45:14.879Z,40.30
2022-08-09T07:48:29.975Z,40.40
2022-08-09T07:52:05.844Z,40.60
2022-08-09T07:54:55.260Z,40.30
2022-08-09T07:57:59.868Z,39.90
2022-08-09T08:01:06.793Z,40.20
2022-08-09T08:04:13.576Z,40.30
2022-08-09T08:08:42.655Z,40.60
2022-08-09T08:10:37.730Z,40.60
2022-08-09T08:13:56.337Z,40.60
2022-08-09T08:17:07.631Z,40.40
2022-08-09T08:20:12.718Z,40.40
2022-08-09T08:23:17.819Z,40.50
2022-08-09T08:26:26.323Z,40.40
2022-08-09T08:29:39.202Z,40.50
2022-08-09T08:32:53.695Z,40.60
2022-08-09T08:36:00.218Z,40.80
2022-08-09T08:39:03.434Z,40.80
2022-08-09T08:42:06.860Z,40.90
2022-08-09T08:45:13.243Z,40.90
2022-08-09T08:48:16.841Z,40.90
2022-08-09T08:51:25.134Z,40.90
2022-08-09T08:54:28.085Z,40.80
2022-08-09T08:57:35.464Z,40.70
2022-08-09T09:00:38.985Z,41.00
2022-08-09T09:03:41.333Z,41.10
2022-08-09T09:06:46.227Z,41.30
2022-08-09T09:10:01.559Z,41.50
2022-08-09T09:13:09.492Z,41.90
2022-08-09T09:16:13.520Z,42.00
2022-08-09T09:22:55.720Z,42.10
2022-08-09T09:26:01.327Z,42.30
2022-08-09T09:29:10.464Z,42.60
2022-08-09T09:32:32.239Z,42.20
2022-08-09T09:36:11.595Z,42.30
2022-08-09T09:39:42.543Z,42.40
2022-08-09T09:42:56.946Z,42.70
2022-08-09T09:49:49.973Z,42.60
2022-08-09T09:52:56.302Z,42.70
2022-08-09T09:56:04.420Z,42.70
2022-08-09T09:59:12.187Z,42.70
2022-08-09T10:02:18.859Z,42.70
2022-08-09T10:05:27.001Z,42.60
2022-08-09T10:08:55.262Z,42.50
2022-08-09T10:12:11.764Z,42.60
2022-08-09T10:15:17.575Z,42.20
2022-08-09T10:18:27.881Z,42.30
2022-08-09T10:21:31.090Z,42.30
2022-08-09T10:24:36.279Z,42.30
2022-08-09T10:27:45.537Z,42.30
2022-08-09T10:34:33.676Z,42.40
2022-08-09T10:37:38.904Z,42.30
2022-08-09T10:40:44.791Z,42.30
2022-08-09T10:43:59.231Z,42.20
2022-08-09T10:48:12.836Z,42.10
2022-08-09T10:51:03.151Z,42.00
2022-08-09T10:54:13.770Z,41.70
2022-08-09T10:57:16.403Z,41.70
2022-08-09T11:00:37.037Z,41.20
2022-08-09T11:04:20.091Z,41.50
2022-08-09T11:07:55.183Z,41.50
2022-08-09T11:11:00.774Z,41.50
2022-08-09T11:14:35.747Z,41.20
2022-08-09T11:17:45.383Z,41.10
2022-08-09T11:20:49.950Z,41.20
2022-08-09T11:24:01.897Z,41.10
2022-08-09T11:28:05.583Z,41.20
2022-08-09T11:30:53.868Z,41.50
2022-08-09T11:33:58.328Z,41.40
2022-08-09T11:37:02.357Z,41.40
2022-08-09T11:40:17.931Z,41.50
2022-08-09T11:43:26.807Z,41.80
2022-08-09T11:46:59.559Z,41.80
2022-08-09T11:50:53.893Z,41.00
2022-08-09T11:53:59.066Z,40.60
2022-08-09T11:56:53.075Z,40.90
2022-08-09T11:59:55.074Z,41.20
2022-08-09T12:02:59.028Z,41.80
2022-08-09T12:06:08.534Z,41.30
2022-08-09T12:09:19.687Z,41.40
2022-08-09T12:12:29.197Z,41.80
2022-08-09T12:15:48.659Z,41.50
2022-08-09T12:18:54.769Z,41.20
2022-08-09T12:22:01.654Z,41.20
2022-08-09T12:25:15.974Z,41.40
2022-08-09T12:29:12.313Z,41.70
2022-08-09T12:31:58.785Z,40.90
2022-08-09T12:35:12.613Z,39.50
2022-08-09T12:38:37.797Z,38.60
2022-08-09T12:41:40.832Z,38.20
2022-08-09T12:44:46.288Z,37.90
2022-08-09T12:47:54.368Z,37.80
2022-08-09T12:50:58.298Z,37.60
2022-08-09T12:54:03.629Z,37.90
2022-08-09T12:57:05.675Z,38.40
2022-08-09T13:00:19.140Z,38.70
2022-08-09T13:03:53.724Z,39.20
2022-08-09T13:06:55.068Z,39.20
2022-08-09T13:10:05.292Z,39.60
2022-08-09T13:13:09.391Z,39.20
2022-08-09T13:16:17.584Z,39.10
2022-08-09T13:20:08.865Z,39.00
2022-08-09T13:24:07.003Z,39.20
2022-08-09T13:26:37.294Z,39.80
2022-08-09T13:30:03.141Z,40.40
2022-08-09T13:33:01.742Z,40.70
2022-08-09T13:36:37.826Z,41.10
2022-08-09T13:41:45.908Z,41.30
2022-08-09T13:42:49.912Z,41.60
2022-08-09T13:46:42.676Z,41.80
2022-08-09T13:49:18.284Z,42.10
2022-08-09T13:52:21.379Z,42.00
2022-08-09T13:55:23.321Z,41.90
2022-08-09T13:58:25.629Z,41.90
2022-08-09T14:01:56.637Z,41.90
2022-08-09T14:04:59.591Z,41.90
2022-08-09T14:08:04.417Z,42.20
2022-08-09T14:11:15.980Z,42.20
2022-08-09T14:14:25.586Z,42.20
2022-08-09T14:17:32.646Z,42.30
2022-08-09T14:20:51.462Z,42.60
2022-08-09T14:23:56.863Z,42.40
2022-08-09T14:27:00.274Z,42.30
2022-08-09T14:30:37.433Z,42.10
2022-08-09T14:33:25.696Z,42.30
2022-08-09T14:36:35.242Z,42.40
2022-08-09T14:39:47.963Z,42.50
2022-08-09T14:42:51.095Z,42.70
2022-08-09T14:46:56.092Z,42.70
2022-08-09T14:49:24.958Z,42.80
2022-08-09T14:52:27.085Z,42.80
2022-08-09T14:55:32.175Z,42.90
2022-08-09T14:58:34.987Z,43.00
2022-08-09T15:01:47.030Z,43.10
2022-08-09T15:04:49.698Z,43.10
2022-08-09T15:07:54.857Z,42.90
2022-08-09T15:11:01.713Z,42.60
2022-08-09T15:14:13.110Z,42.40
2022-08-09T15:17:15.784Z,42.60
2022-08-09T15:21:53.817Z,42.60
2022-08-09T15:24:09.098Z,41.50
2022-08-09T15:27:01.999Z,41.60
2022-08-09T15:30:59.193Z,42.00
2022-08-09T15:33:57.623Z,42.20
2022-08-09T15:36:49.905Z,42.20
2022-08-09T15:39:55.275Z,42.30
2022-08-09T15:42:57.293Z,42.30
2022-08-09T15:46:28.559Z,41.90
2022-08-09T15:49:23.910Z,41.80
2022-08-09T15:52:26.459Z,41.70
2022-08-09T15:55:28.989Z,41.70
2022-08-09T15:58:37.285Z,41.30
2022-08-09T16:01:41.385Z,39.70
2022-08-09T16:04:45.142Z,38.10
2022-08-09T16:07:51.880Z,37.90
2022-08-09T16:10:56.917Z,37.70
2022-08-09T16:14:04.814Z,37.70
2022-08-09T16:17:09.439Z,38.20
2022-08-09T16:20:12.835Z,37.60
2022-08-09T16:23:15.122Z,37.50
2022-08-09T16:26:35.041Z,37.20
2022-08-09T16:29:50.531Z,37.70
2022-08-09T16:33:09.685Z,37.80
2022-08-09T16:36:18.587Z,37.60
2022-08-09T16:39:21.078Z,37.50
2022-08-09T16:42:28.246Z,36.70
2022-08-09T16:45:30.537Z,36.10
2022-08-09T16:48:43.401Z,36.60
2022-08-09T16:51:55.435Z,36.40
2022-08-09T16:54:58.252Z,36.60
2022-08-09T16:58:09.815Z,36.50
2022-08-09T17:01:12.607Z,35.90
2022-08-09T17:04:25.540Z,36.20
2022-08-09T17:08:45.393Z,35.90
2022-08-09T17:10:52.677Z,36.70
2022-08-09T17:14:01.505Z,36.80
2022-08-09T17:17:12.829Z,36.90
2022-08-09T17:20:29.904Z,37.70
2022-08-09T17:24:27.290Z,37.60
2022-08-09T17:27:01.910Z,37.30
2022-08-09T17:30:12.860Z,37.60
2022-08-09T17:33:22.047Z,37.90
2022-08-09T17:36:25.104Z,38.20
2022-08-09T17:39:48.242Z,38.00
2022-08-09T17:42:55.739Z,38.00
2022-08-09T17:46:06.102Z,38.00
2022-08-09T17:49:09.366Z,38.10
2022-08-09T17:52:20.582Z,38.00
2022-08-09T17:55:24.516Z,37.60
2022-08-09T17:58:47.015Z,37.80
2022-08-09T18:02:07.936Z,37.80
2022-08-09T18:05:13.056Z,38.00
2022-08-09T18:08:15.383Z,38.20
2022-08-09T18:11:23.743Z,38.30
2022-08-09T18:14:26.678Z,38.00
2022-08-09T18:18:02.490Z,38.20
2022-08-09T18:21:18.962Z,38.60
2022-08-09T18:24:16.408Z,38.80
2022-08-09T18:27:33.624Z,38.50
2022-08-09T18:30:48.714Z,38.60
2022-08-09T18:33:53.603Z,38.50
2022-08-09T18:36:56.071Z,38.60
2022-08-09T18:40:00.882Z,38.40
2022-08-09T18:43:04.014Z,38.30
2022-08-09T18:46:46.760Z,38.40
2022-08-09T18:49:32.267Z,38.20
2022-08-09T18:52:46.516Z,38.30
2022-08-09T18:55:56.877Z,38.40
2022-08-09T18:59:07.107Z,38.40
2022-08-09T19:02:09.776Z,38.40
2022-08-09T19:05:19.707Z,38.40
2022-08-09T19:08:27.895Z,38.50
2022-08-09T19:11:37.506Z,38.50
2022-08-09T19:14:40.406Z,38.50
2022-08-09T19:17:54.601Z,38.30
2022-08-09T19:20:58.799Z,38.10
2022-08-09T19:24:33.255Z,38.20
2022-08-09T19:27:28.369Z,38.10
2022-08-09T19:30:32.406Z,38.20
2022-08-09T19:33:35.329Z,38.20
2022-08-09T19:36:37.258Z,38.30
2022-08-09T19:40:04.208Z,38.20
2022-08-09T19:43:10.168Z,38.10
2022-08-09T19:46:34.060Z,38.10
2022-08-09T19:50:08.332Z,38.00
2022-08-09T19:53:02.449Z,38.00
2022-08-09T19:56:07.114Z,37.90
2022-08-09T19:59:40.530Z,37.80
2022-08-09T20:04:12.415Z,37.80
2022-08-09T20:06:22.510Z,37.70
2022-08-09T20:09:45.065Z,37.60
2022-08-09T20:12:48.111Z,37.50
2022-08-09T20:16:32.973Z,37.40
2022-08-09T20:19:47.792Z,37.40
2022-08-09T20:22:37.761Z,37.40
2022-08-09T20:25:51.929Z,37.40
2022-08-09T20:29:18.764Z,37.30
2022-08-09T20:32:30.442Z,37.20
2022-08-09T20:35:33.615Z,37.00
2022-08-09T20:39:07.110Z,37.00
2022-08-09T20:42:00.962Z,37.00
2022-08-09T20:45:56.515Z,36.80
2022-08-09T20:48:25.762Z,36.70
2022-08-09T20:51:31.695Z,36.70
2022-08-09T20:54:51.980Z,36.80
2022-08-09T20:58:08.454Z,36.70
2022-08-09T21:01:35.120Z,36.70
2022-08-09T21:05:50.732Z,36.70
2022-08-09T21:08:04.491Z,36.60
2022-08-09T21:11:07.326Z,36.50
2022-08-09T21:14:30.815Z,36.50
2022-08-09T21:18:23.587Z,36.50
2022-08-09T21:20:56.736Z,36.40
2022-08-09T21:24:02.312Z,36.30
2022-08-09T21:27:10.106Z,36.20
2022-08-09T21:30:27.082Z,36.20
2022-08-09T21:33:36.449Z,36.10
2022-08-09T21:36:55.351Z,36.10
2022-08-09T21:39:59.353Z,36.00
2022-08-09T21:43:02.088Z,36.00
2022-08-09T21:46:04.327Z,36.00
2022-08-09T21:49:07.470Z,35.90
2022-08-09T21:52:17.523Z,35.90
2022-08-09T21:55:20.576Z,35.90
2022-08-09T21:58:31.100Z,35.90
2022-08-09T22:01:58.721Z,35.80
2022-08-09T22:04:57.536Z,35.80
2022-08-09T22:08:01.583Z,35.70
2022-08-09T22:12:05.613Z,35.70
2022-08-09T22:14:28.256Z,35.70
2022-08-09T22:17:32.109Z,35.70
2022-08-09T22:20:34.924Z,35.70
2022-08-09T22:24:01.683Z,35.70
2022-08-09T22:26:59.391Z,35.70
2022-08-09T22:30:01.405Z,35.60
2022-08-09T22:33:09.458Z,35.60
2022-08-09T22:36:11.877Z,35.60
2022-08-09T22:39:46.645Z,35.60
2022-08-09T22:42:38.587Z,35.50
2022-08-09T22:48:12.672Z,35.50
2022-08-09T22:49:09.758Z,35.50
2022-08-09T22:52:12.747Z,35.50
2022-08-09T22:55:21.889Z,35.40
2022-08-09T22:58:32.249Z,35.40
2022-08-09T23:01:35.492Z,35.30
2022-08-09T23:04:40.456Z,35.30
2022-08-09T23:08:27.549Z,35.30
2022-08-09T23:11:22.963Z,35.20
2022-08-09T23:14:37.334Z,35.20
2022-08-09T23:17:43.498Z,35.10
2022-08-09T23:20:46.272Z,35.10
2022-08-09T23:24:01.626Z,35.10
2022-08-09T23:27:09.240Z,35.10
2022-08-09T23:30:11.789Z,35.10
2022-08-09T23:33:17.698Z,35.10
2022-08-09T23:36:20.092Z,35.10
2022-08-09T23:39:22.462Z,35.00
2022-08-09T23:42:24.600Z,35.10
2022-08-09T23:45:37.206Z,35.00
2022-08-09T23:48:41.033Z,35.00
2022-08-09T23:51:43.202Z,35.00
2022-08-09T23:54:45.597Z,35.00
2022-08-09T23:57:55.521Z,34.90
